sensor_id;sensor_type;location;lat;lon;timestamp;pressure;altitude;pressure_sealevel;temperature;humidity
2268;BME280;11052;43.338;25.502;2023-05-11T00:00:01;101075.91;;;9.28;100.00
2268;BME280;11052;43.338;25.502;2023-05-11T00:02:29;101074.16;;;9.30;100.00
2268;BME280;11052;43.338;25.502;2023-05-11T00:04:56;101076.69;;;9.36;100.00
2268;BME280;11052;43.338;25.502;2023-05-11T00:07:23;101079.31;;;9.31;100.00
2268;BME280;11052;43.338;25.502;2023-05-11T00:09:52;101075.94;;;9.26;100.00
2268;BME280;11052;43.338;25.502;2023-05-11T00:12:19;101082.00;;;9.25;100.00
2268;BME280;11052;43.338;25.502;2023-05-11T00:14:46;101080.25;;;9.26;100.00
2268;BME280;11052;43.338;25.502;2023-05-11T00:17:13;101079.03;;;8.79;100.00
2268;BME280;11052;43.338;25.502;2023-05-11T00:19:40;101075.66;;;8.72;100.00
2268;BME280;11052;43.338;25.502;2023-05-11T00:22:07;101079.25;;;8.61;100.00
2268;BME280;11052;43.338;25.502;2023-05-11T00:24:34;101075.09;;;8.46;100.00
2268;BME280;11052;43.338;25.502;2023-05-11T00:27:03;101085.41;;;8.46;100.00
2268;BME280;11052;43.338;25.502;2023-05-11T00:29:30;101076.78;;;8.48;100.00
2268;BME280;11052;43.338;25.502;2023-05-11T00:31:57;101069.03;;;8.47;100.00
2268;BME280;11052;43.338;25.502;2023-05-11T00:34:24;101064.69;;;8.52;100.00
2268;BME280;11052;43.338;25.502;2023-05-11T00:36:51;101074.97;;;8.60;100.00
2268;BME280;11052;43.338;25.502;2023-05-11T00:39:18;101072.34;;;8.64;100.00
2268;BME280;11052;43.338;25.502;2023-05-11T00:41:45;101067.19;;;8.61;100.00
2268;BME280;11052;43.338;25.502;2023-05-11T00:44:14;101066.31;;;8.62;100.00
2268;BME280;11052;43.338;25.502;2023-05-11T00:46:41;101069.75;;;8.64;100.00
2268;BME280;11052;43.338;25.502;2023-05-11T00:49:08;101070.63;;;8.63;100.00
2268;BME280;11052;43.338;25.502;2023-05-11T00:51:37;101064.59;;;8.61;100.00
2268;BME280;11052;43.338;25.502;2023-05-11T00:54:04;101061.19;;;8.59;100.00
2268;BME280;11052;43.338;25.502;2023-05-11T00:56:37;101056.88;;;8.58;100.00
2268;BME280;11052;43.338;25.502;2023-05-11T00:59:04;101051.78;;;8.50;100.00
2268;BME280;11052;43.338;25.502;2023-05-11T01:01:33;101058.69;;;8.50;100.00
2268;BME280;11052;43.338;25.502;2023-05-11T01:04:00;101059.59;;;8.44;100.00
2268;BME280;11052;43.338;25.502;2023-05-11T01:06:33;101049.31;;;8.40;100.00
2268;BME280;11052;43.338;25.502;2023-05-11T01:09:11;101059.63;;;8.41;100.00
2268;BME280;11052;43.338;25.502;2023-05-11T01:11:44;101056.28;;;8.26;100.00
2268;BME280;11052;43.338;25.502;2023-05-11T01:14:19;101057.13;;;8.26;100.00
2268;BME280;11052;43.338;25.502;2023-05-11T01:16:54;101056.31;;;8.21;100.00
2268;BME280;11052;43.338;25.502;2023-05-11T01:19:33;101058.97;;;8.13;100.00
2268;BME280;11052;43.338;25.502;2023-05-11T01:22:12;101055.53;;;8.13;100.00
2268;BME280;11052;43.338;25.502;2023-05-11T01:24:53;101048.72;;;8.01;100.00
2268;BME280;11052;43.338;25.502;2023-05-11T01:27:39;101041.94;;;7.89;100.00
2268;BME280;11052;43.338;25.502;2023-05-11T01:30:31;101041.88;;;7.94;100.00
2268;BME280;11052;43.338;25.502;2023-05-11T01:33:06;101041.00;;;7.97;100.00
2268;BME280;11052;43.338;25.502;2023-05-11T01:35:37;101041.03;;;7.92;100.00
2268;BME280;11052;43.338;25.502;2023-05-11T01:38:10;101047.03;;;7.96;100.00
2268;BME280;11052;43.338;25.502;2023-05-11T01:40:40;101041.00;;;7.98;100.00
2268;BME280;11052;43.338;25.502;2023-05-11T01:43:12;101047.91;;;7.95;100.00
2268;BME280;11052;43.338;25.502;2023-05-11T01:45:45;101048.84;;;7.84;100.00
2268;BME280;11052;43.338;25.502;2023-05-11T01:48:16;101049.69;;;7.88;100.00
2268;BME280;11052;43.338;25.502;2023-05-11T01:50:45;101042.78;;;7.90;100.00
2268;BME280;11052;43.338;25.502;2023-05-11T01:53:14;101049.69;;;7.88;100.00
2268;BME280;11052;43.338;25.502;2023-05-11T01:55:42;101047.97;;;7.87;100.00
2268;BME280;11052;43.338;25.502;2023-05-11T01:58:13;101052.25;;;7.88;100.00
2268;BME280;11052;43.338;25.502;2023-05-11T02:00:44;101049.72;;;7.83;100.00
2268;BME280;11052;43.338;25.502;2023-05-11T02:03:12;101054.84;;;7.86;100.00
2268;BME280;11052;43.338;25.502;2023-05-11T02:05:41;101055.72;;;7.85;100.00
2268;BME280;11052;43.338;25.502;2023-05-11T02:08:10;101063.44;;;7.87;100.00
2268;BME280;11052;43.338;25.502;2023-05-11T02:10:39;101059.38;;;7.52;100.00
2268;BME280;11052;43.338;25.502;2023-05-11T02:13:08;101062.81;;;7.57;100.00
2268;BME280;11052;43.338;25.502;2023-05-11T02:15:37;101055.06;;;7.54;100.00
2268;BME280;11052;43.338;25.502;2023-05-11T02:18:11;101056.81;;;7.52;100.00
2268;BME280;11052;43.338;25.502;2023-05-11T02:20:41;101056.03;;;7.32;100.00
2268;BME280;11052;43.338;25.502;2023-05-11T02:23:09;101052.59;;;7.35;100.00
2268;BME280;11052;43.338;25.502;2023-05-11T02:25:38;101062.00;;;7.46;100.00
2268;BME280;11052;43.338;25.502;2023-05-11T02:28:06;101059.41;;;7.46;100.00
2268;BME280;11052;43.338;25.502;2023-05-11T02:30:39;101061.97;;;7.52;100.00
2268;BME280;11052;43.338;25.502;2023-05-11T02:33:09;101069.72;;;7.52;100.00
2268;BME280;11052;43.338;25.502;2023-05-11T02:35:39;101061.97;;;7.54;100.00
2268;BME280;11052;43.338;25.502;2023-05-11T02:38:09;101061.13;;;7.52;100.00
2268;BME280;11052;43.338;25.502;2023-05-11T02:40:42;101068.88;;;7.47;100.00
2268;BME280;11052;43.338;25.502;2023-05-11T02:43:14;101065.47;;;7.42;100.00
2268;BME280;11052;43.338;25.502;2023-05-11T02:45:43;101077.50;;;7.40;100.00
2268;BME280;11052;43.338;25.502;2023-05-11T02:48:20;101075.78;;;7.42;100.00
2268;BME280;11052;43.338;25.502;2023-05-11T02:50:50;101076.66;;;7.35;100.00
2268;BME280;11052;43.338;25.502;2023-05-11T02:53:18;101076.66;;;7.35;100.00
2268;BME280;11052;43.338;25.502;2023-05-11T02:55:48;101074.13;;;7.29;100.00
2268;BME280;11052;43.338;25.502;2023-05-11T02:58:17;101078.41;;;7.32;100.00
2268;BME280;11052;43.338;25.502;2023-05-11T03:00:44;101086.13;;;7.32;100.00
2268;BME280;11052;43.338;25.502;2023-05-11T03:03:13;101084.47;;;7.18;100.00
2268;BME280;11052;43.338;25.502;2023-05-11T03:05:41;101086.19;;;7.18;100.00
2268;BME280;11052;43.338;25.502;2023-05-11T03:08:08;101082.78;;;7.10;100.00
2268;BME280;11052;43.338;25.502;2023-05-11T03:10:35;101086.25;;;7.00;100.00
2268;BME280;11052;43.338;25.502;2023-05-11T03:13:03;101087.09;;;7.02;100.00
2268;BME280;11052;43.338;25.502;2023-05-11T03:15:31;101084.50;;;7.09;100.00
2268;BME280;11052;43.338;25.502;2023-05-11T03:17:59;101084.50;;;7.11;100.00
2268;BME280;11052;43.338;25.502;2023-05-11T03:20:29;101095.66;;;7.11;100.00
2268;BME280;11052;43.338;25.502;2023-05-11T03:22:58;101088.75;;;7.18;100.00
2268;BME280;11052;43.338;25.502;2023-05-11T03:25:27;101089.59;;;7.24;100.00
2268;BME280;11052;43.338;25.502;2023-05-11T03:27:54;101087.91;;;7.14;100.00
2268;BME280;11052;43.338;25.502;2023-05-11T03:30:23;101093.91;;;7.21;100.00
2268;BME280;11052;43.338;25.502;2023-05-11T03:32:51;101099.91;;;7.29;100.00
2268;BME280;11052;43.338;25.502;2023-05-11T03:35:19;101099.03;;;7.29;100.00
2268;BME280;11052;43.338;25.502;2023-05-11T03:37:49;101099.03;;;7.30;100.00
2268;BME280;11052;43.338;25.502;2023-05-11T03:40:17;101098.16;;;7.37;100.00
2268;BME280;11052;43.338;25.502;2023-05-11T03:42:45;101099.84;;;7.43;100.00
2268;BME280;11052;43.338;25.502;2023-05-11T03:45:16;101103.31;;;7.34;100.00
2268;BME280;11052;43.338;25.502;2023-05-11T03:47:45;101105.09;;;7.20;100.00
2268;BME280;11052;43.338;25.502;2023-05-11T03:50:14;101101.63;;;7.24;100.00
2268;BME280;11052;43.338;25.502;2023-05-11T03:52:41;101106.78;;;7.30;100.00
2268;BME280;11052;43.338;25.502;2023-05-11T03:55:10;101105.91;;;7.30;100.00
2268;BME280;11052;43.338;25.502;2023-05-11T03:57:37;101105.03;;;7.32;100.00
2268;BME280;11052;43.338;25.502;2023-05-11T04:00:06;101104.22;;;7.26;100.00
2268;BME280;11052;43.338;25.502;2023-05-11T04:02:35;101106.75;;;7.39;100.00
2268;BME280;11052;43.338;25.502;2023-05-11T04:05:06;101100.72;;;7.42;100.00
2268;BME280;11052;43.338;25.502;2023-05-11T04:07:33;101101.50;;;7.59;100.00
2268;BME280;11052;43.338;25.502;2023-05-11T04:10:01;101102.28;;;7.70;100.00
2268;BME280;11052;43.338;25.502;2023-05-11T04:12:30;101095.25;;;7.90;100.00
2268;BME280;11052;43.338;25.502;2023-05-11T04:14:57;101097.63;;;8.21;100.00
2268;BME280;11052;43.338;25.502;2023-05-11T04:17:24;101094.00;;;8.49;100.00
2268;BME280;11052;43.338;25.502;2023-05-11T04:19:51;101097.09;;;8.85;100.00
2268;BME280;11052;43.338;25.502;2023-05-11T04:22:19;101091.50;;;9.23;100.00
2268;BME280;11052;43.338;25.502;2023-05-11T04:24:46;101088.50;;;9.53;100.00
2268;BME280;11052;43.338;25.502;2023-05-11T04:27:13;101082.88;;;9.85;100.00
2268;BME280;11052;43.338;25.502;2023-05-11T04:29:42;101083.28;;;10.16;100.00
2268;BME280;11052;43.338;25.502;2023-05-11T04:32:09;101086.19;;;10.49;100.00
2268;BME280;11052;43.338;25.502;2023-05-11T04:34:36;101083.88;;;10.83;100.00
2268;BME280;11052;43.338;25.502;2023-05-11T04:37:03;101085.66;;;10.79;100.00
2268;BME280;11052;43.338;25.502;2023-05-11T04:39:32;101087.28;;;11.28;100.00
2268;BME280;11052;43.338;25.502;2023-05-11T04:41:59;101098.63;;;11.66;100.00
2268;BME280;11052;43.338;25.502;2023-05-11T04:44:26;101105.97;;;11.87;100.00
2268;BME280;11052;43.338;25.502;2023-05-11T04:46:55;101100.78;;;11.87;100.00
2268;BME280;11052;43.338;25.502;2023-05-11T04:49:22;101112.22;;;12.15;100.00
2268;BME280;11052;43.338;25.502;2023-05-11T04:51:49;101110.75;;;12.05;100.00
2268;BME280;11052;43.338;25.502;2023-05-11T04:54:17;101109.13;;;12.37;100.00
2268;BME280;11052;43.338;25.502;2023-05-11T04:56:44;101107.84;;;12.87;100.00
2268;BME280;11052;43.338;25.502;2023-05-11T04:59:11;101110.22;;;13.57;100.00
2268;BME280;11052;43.338;25.502;2023-05-11T05:01:38;101109.91;;;13.95;88.72
2268;BME280;11052;43.338;25.502;2023-05-11T05:04:06;101107.44;;;13.33;88.36
2268;BME280;11052;43.338;25.502;2023-05-11T05:06:34;101111.63;;;13.39;89.95
2268;BME280;11052;43.338;25.502;2023-05-11T05:09:02;101113.31;;;13.40;88.98
2268;BME280;11052;43.338;25.502;2023-05-11T05:11:30;101109.38;;;13.86;89.51
2268;BME280;11052;43.338;25.502;2023-05-11T05:13:57;101112.00;;;14.38;85.05
2268;BME280;11052;43.338;25.502;2023-05-11T05:16:24;101112.28;;;14.57;81.85
2268;BME280;11052;43.338;25.502;2023-05-11T05:18:51;101109.09;;;14.49;80.27
2268;BME280;11052;43.338;25.502;2023-05-11T05:21:19;101098.78;;;13.90;78.17
2268;BME280;11052;43.338;25.502;2023-05-11T05:23:46;101102.78;;;13.44;81.04
2268;BME280;11052;43.338;25.502;2023-05-11T05:26:14;101096.94;;;13.36;79.36
2268;BME280;11052;43.338;25.502;2023-05-11T05:28:41;101095.91;;;13.42;80.80
2268;BME280;11052;43.338;25.502;2023-05-11T05:31:08;101105.16;;;13.82;78.98
2268;BME280;11052;43.338;25.502;2023-05-11T05:33:35;101105.19;;;13.80;78.71
2268;BME280;11052;43.338;25.502;2023-05-11T05:36:02;101091.47;;;14.01;78.94
2268;BME280;11052;43.338;25.502;2023-05-11T05:38:31;101086.47;;;14.22;77.15
2268;BME280;11052;43.338;25.502;2023-05-11T05:40:58;101097.16;;;14.14;77.51
2268;BME280;11052;43.338;25.502;2023-05-11T05:43:25;101093.88;;;14.07;74.63
2268;BME280;11052;43.338;25.502;2023-05-11T05:45:52;101102.53;;;14.36;75.28
2268;BME280;11052;43.338;25.502;2023-05-11T05:48:19;101103.88;;;14.49;75.45
2268;BME280;11052;43.338;25.502;2023-05-11T05:50:46;101093.97;;;14.59;74.40
2268;BME280;11052;43.338;25.502;2023-05-11T05:53:14;101097.63;;;14.78;71.22
2268;BME280;11052;43.338;25.502;2023-05-11T05:55:42;101101.34;;;14.72;67.74
2268;BME280;11052;43.338;25.502;2023-05-11T05:58:09;101106.94;;;14.85;67.57
2268;BME280;11052;43.338;25.502;2023-05-11T06:00:37;101105.34;;;15.06;67.17
2268;BME280;11052;43.338;25.502;2023-05-11T06:03:04;101107.31;;;15.24;64.97
2268;BME280;11052;43.338;25.502;2023-05-11T06:05:31;101109.09;;;14.99;66.85
2268;BME280;11052;43.338;25.502;2023-05-11T06:07:58;101109.47;;;15.36;63.70
2268;BME280;11052;43.338;25.502;2023-05-11T06:10:25;101109.53;;;15.35;62.02
2268;BME280;11052;43.338;25.502;2023-05-11T06:12:54;101108.78;;;15.55;65.68
2268;BME280;11052;43.338;25.502;2023-05-11T06:15:21;101113.06;;;16.02;65.33
2268;BME280;11052;43.338;25.502;2023-05-11T06:17:48;101112.00;;;16.06;60.49
2268;BME280;11052;43.338;25.502;2023-05-11T06:20:15;101113.88;;;15.81;63.06
2268;BME280;11052;43.338;25.502;2023-05-11T06:22:42;101111.84;;;16.11;63.56
2268;BME280;11052;43.338;25.502;2023-05-11T06:25:09;101110.81;;;16.15;60.30
2268;BME280;11052;43.338;25.502;2023-05-11T06:27:36;101111.53;;;16.19;61.00
2268;BME280;11052;43.338;25.502;2023-05-11T06:30:06;101117.31;;;16.27;61.33
2268;BME280;11052;43.338;25.502;2023-05-11T06:32:33;101106.06;;;16.25;60.11
2268;BME280;11052;43.338;25.502;2023-05-11T06:35:00;101108.66;;;16.03;58.72
2268;BME280;11052;43.338;25.502;2023-05-11T06:37:28;101112.94;;;16.05;57.31
2268;BME280;11052;43.338;25.502;2023-05-11T06:39:55;101109.41;;;16.28;56.07
2268;BME280;11052;43.338;25.502;2023-05-11T06:42:23;101105.25;;;16.23;55.33
2268;BME280;11052;43.338;25.502;2023-05-11T06:44:51;101098.25;;;16.45;56.39
2268;BME280;11052;43.338;25.502;2023-05-11T06:47:19;101102.69;;;16.43;56.39
2268;BME280;11052;43.338;25.502;2023-05-11T06:49:46;101100.97;;;16.62;58.57
2268;BME280;11052;43.338;25.502;2023-05-11T06:52:14;101092.88;;;16.68;55.75
2268;BME280;11052;43.338;25.502;2023-05-11T06:54:41;101092.38;;;16.59;54.87
2268;BME280;11052;43.338;25.502;2023-05-11T06:57:08;101092.00;;;17.09;56.03
2268;BME280;11052;43.338;25.502;2023-05-11T06:59:35;101091.47;;;17.40;54.37
2268;BME280;11052;43.338;25.502;2023-05-11T07:02:02;101094.72;;;16.87;54.39
2268;BME280;11052;43.338;25.502;2023-05-11T07:04:31;101100.25;;;17.38;54.89
2268;BME280;11052;43.338;25.502;2023-05-11T07:06:58;101094.06;;;17.02;51.13
2268;BME280;11052;43.338;25.502;2023-05-11T07:09:25;101101.25;;;17.55;55.38
2268;BME280;11052;43.338;25.502;2023-05-11T07:11:52;101092.97;;;17.83;52.97
2268;BME280;11052;43.338;25.502;2023-05-11T07:14:19;101103.00;;;17.35;50.20
2268;BME280;11052;43.338;25.502;2023-05-11T07:16:46;101088.44;;;17.67;51.91
2268;BME280;11052;43.338;25.502;2023-05-11T07:19:17;101087.47;;;17.70;53.13
2268;BME280;11052;43.338;25.502;2023-05-11T07:21:45;101095.06;;;18.12;52.12
2268;BME280;11052;43.338;25.502;2023-05-11T07:24:13;101095.56;;;18.01;50.30
2268;BME280;11052;43.338;25.502;2023-05-11T07:26:40;101093.84;;;18.37;50.45
2268;BME280;11052;43.338;25.502;2023-05-11T07:29:07;101089.69;;;17.96;49.82
2268;BME280;11052;43.338;25.502;2023-05-11T07:31:34;101094.28;;;18.27;51.44
2268;BME280;11052;43.338;25.502;2023-05-11T07:34:01;101085.25;;;18.50;51.33
2268;BME280;11052;43.338;25.502;2023-05-11T07:36:29;101084.72;;;18.09;53.22
2268;BME280;11052;43.338;25.502;2023-05-11T07:38:58;101086.66;;;18.57;53.56
2268;BME280;11052;43.338;25.502;2023-05-11T07:41:25;101085.44;;;17.94;52.33
2268;BME280;11052;43.338;25.502;2023-05-11T07:43:53;101090.00;;;17.72;54.24
2268;BME280;11052;43.338;25.502;2023-05-11T07:46:20;101077.09;;;17.86;53.49
2268;BME280;11052;43.338;25.502;2023-05-11T07:48:47;101081.25;;;18.09;52.46
2268;BME280;11052;43.338;25.502;2023-05-11T07:51:14;101082.84;;;18.28;53.16
2268;BME280;11052;43.338;25.502;2023-05-11T07:53:42;101081.41;;;18.57;53.35
2268;BME280;11052;43.338;25.502;2023-05-11T07:56:10;101089.53;;;18.70;49.56
2268;BME280;11052;43.338;25.502;2023-05-11T07:58:37;101088.53;;;18.90;49.64
2268;BME280;11052;43.338;25.502;2023-05-11T08:01:05;101081.56;;;19.38;48.61
2268;BME280;11052;43.338;25.502;2023-05-11T08:03:32;101091.97;;;19.23;46.36
2268;BME280;11052;43.338;25.502;2023-05-11T08:05:59;101085.84;;;18.74;48.70
2268;BME280;11052;43.338;25.502;2023-05-11T08:08:27;101081.09;;;19.14;47.75
2268;BME280;11052;43.338;25.502;2023-05-11T08:10:54;101087.25;;;19.30;47.50
2268;BME280;11052;43.338;25.502;2023-05-11T08:13:23;101093.94;;;19.53;47.45
2268;BME280;11052;43.338;25.502;2023-05-11T08:15:50;101077.41;;;19.33;47.32
2268;BME280;11052;43.338;25.502;2023-05-11T08:18:17;101077.00;;;19.08;48.27
2268;BME280;11052;43.338;25.502;2023-05-11T08:20:44;101080.81;;;19.36;48.22
2268;BME280;11052;43.338;25.502;2023-05-11T08:23:11;101080.41;;;18.94;47.93
2268;BME280;11052;43.338;25.502;2023-05-11T08:25:48;101066.19;;;19.14;47.82
2268;BME280;11052;43.338;25.502;2023-05-11T08:28:16;101069.41;;;19.19;46.64
2268;BME280;11052;43.338;25.502;2023-05-11T08:30:45;101067.13;;;19.62;47.96
2268;BME280;11052;43.338;25.502;2023-05-11T08:33:12;101074.94;;;19.63;43.32
2268;BME280;11052;43.338;25.502;2023-05-11T08:35:39;101073.53;;;18.92;45.85
2268;BME280;11052;43.338;25.502;2023-05-11T08:38:06;101069.56;;;19.01;46.01
2268;BME280;11052;43.338;25.502;2023-05-11T08:40:34;101062.47;;;19.18;45.05
2268;BME280;11052;43.338;25.502;2023-05-11T08:43:03;101054.13;;;19.10;44.54
2268;BME280;11052;43.338;25.502;2023-05-11T08:45:32;101063.69;;;19.44;44.31
2268;BME280;11052;43.338;25.502;2023-05-11T08:48:03;101063.25;;;19.36;42.21
2268;BME280;11052;43.338;25.502;2023-05-11T08:50:31;101064.09;;;19.37;43.66
2268;BME280;11052;43.338;25.502;2023-05-11T08:52:59;101054.34;;;19.39;42.72
2268;BME280;11052;43.338;25.502;2023-05-11T08:55:26;101048.56;;;19.32;42.92
2268;BME280;11052;43.338;25.502;2023-05-11T08:57:55;101046.78;;;19.32;42.15
2268;BME280;11052;43.338;25.502;2023-05-11T09:00:22;101044.50;;;19.42;44.35
2268;BME280;11052;43.338;25.502;2023-05-11T09:02:50;101043.50;;;19.92;43.66
2268;BME280;11052;43.338;25.502;2023-05-11T09:05:19;101032.56;;;20.14;42.91
2268;BME280;11052;43.338;25.502;2023-05-11T09:07:49;101038.59;;;19.70;40.36
2268;BME280;11052;43.338;25.502;2023-05-11T09:10:18;101050.56;;;19.60;42.84
2268;BME280;11052;43.338;25.502;2023-05-11T09:12:45;101037.25;;;19.79;41.44
2268;BME280;11052;43.338;25.502;2023-05-11T09:15:12;101040.97;;;19.90;42.29
2268;BME280;11052;43.338;25.502;2023-05-11T09:17:40;101029.75;;;19.87;41.59
2268;BME280;11052;43.338;25.502;2023-05-11T09:20:08;101041.16;;;19.72;41.71
2268;BME280;11052;43.338;25.502;2023-05-11T09:22:41;101026.66;;;19.94;42.77
2268;BME280;11052;43.338;25.502;2023-05-11T09:25:10;101027.72;;;20.52;42.89
2268;BME280;11052;43.338;25.502;2023-05-11T09:27:41;101031.50;;;20.32;40.49
2268;BME280;11052;43.338;25.502;2023-05-11T09:30:10;101033.06;;;19.90;41.21
2268;BME280;11052;43.338;25.502;2023-05-11T09:32:48;101027.66;;;20.38;43.07
2268;BME280;11052;43.338;25.502;2023-05-11T09:35:22;101038.50;;;19.87;40.75
2268;BME280;11052;43.338;25.502;2023-05-11T09:38:02;101026.81;;;19.77;40.14
2268;BME280;11052;43.338;25.502;2023-05-11T09:40:31;101025.38;;;20.02;41.65
2268;BME280;11052;43.338;25.502;2023-05-11T09:42:58;101015.59;;;20.34;41.70
2268;BME280;11052;43.338;25.502;2023-05-11T09:45:39;101008.56;;;20.04;40.13
2268;BME280;11052;43.338;25.502;2023-05-11T09:48:23;101013.97;;;20.17;41.64
2268;BME280;11052;43.338;25.502;2023-05-11T09:50:57;101009.66;;;20.60;42.60
2268;BME280;11052;43.338;25.502;2023-05-11T09:53:35;101009.94;;;20.55;42.02
2268;BME280;11052;43.338;25.502;2023-05-11T09:56:02;100998.81;;;20.93;41.93
2268;BME280;11052;43.338;25.502;2023-05-11T09:58:45;101003.31;;;21.34;41.54
2268;BME280;11052;43.338;25.502;2023-05-11T10:01:14;101003.03;;;21.38;42.49
2268;BME280;11052;43.338;25.502;2023-05-11T10:03:49;100998.34;;;21.29;42.36
2268;BME280;11052;43.338;25.502;2023-05-11T10:06:18;100994.19;;;21.25;39.28
2268;BME280;11052;43.338;25.502;2023-05-11T10:08:47;100995.56;;;21.45;39.30
2268;BME280;11052;43.338;25.502;2023-05-11T10:11:14;100997.38;;;21.44;39.39
2268;BME280;11052;43.338;25.502;2023-05-11T10:13:42;100992.31;;;21.13;40.77
2268;BME280;11052;43.338;25.502;2023-05-11T10:16:11;100985.44;;;21.10;41.78
2268;BME280;11052;43.338;25.502;2023-05-11T10:18:39;100977.72;;;21.21;41.63
2268;BME280;11052;43.338;25.502;2023-05-11T10:21:08;100981.88;;;21.52;43.08
2268;BME280;11052;43.338;25.502;2023-05-11T10:23:35;100976.38;;;21.14;39.20
2268;BME280;11052;43.338;25.502;2023-05-11T10:26:05;100966.69;;;21.15;41.22
2268;BME280;11052;43.338;25.502;2023-05-11T10:28:32;100960.56;;;21.29;39.09
2268;BME280;11052;43.338;25.502;2023-05-11T10:30:59;100973.88;;;21.54;40.95
2268;BME280;11052;43.338;25.502;2023-05-11T10:33:29;100977.03;;;21.18;40.95
2268;BME280;11052;43.338;25.502;2023-05-11T10:35:57;100980.94;;;20.84;41.98
2268;BME280;11052;43.338;25.502;2023-05-11T10:38:26;100967.94;;;20.81;42.32
2268;BME280;11052;43.338;25.502;2023-05-11T10:40:57;100966.50;;;21.04;44.42
2268;BME280;11052;43.338;25.502;2023-05-11T10:43:45;100968.41;;;21.57;44.94
2268;BME280;11052;43.338;25.502;2023-05-11T10:46:32;100974.50;;;21.16;42.37
2268;BME280;11052;43.338;25.502;2023-05-11T10:52:18;100970.72;;;21.35;41.76
2268;BME280;11052;43.338;25.502;2023-05-11T10:54:58;100970.16;;;21.15;41.64
2268;BME280;11052;43.338;25.502;2023-05-11T10:57:39;100962.16;;;21.17;42.40
2268;BME280;11052;43.338;25.502;2023-05-11T11:00:38;100954.53;;;21.12;43.02
2268;BME280;11052;43.338;25.502;2023-05-11T11:03:13;100947.84;;;21.62;41.57
2268;BME280;11052;43.338;25.502;2023-05-11T11:05:41;100959.88;;;21.39;41.82
2268;BME280;11052;43.338;25.502;2023-05-11T11:08:09;100958.25;;;20.95;40.89
2268;BME280;11052;43.338;25.502;2023-05-11T11:10:38;100967.78;;;21.39;42.86
2268;BME280;11052;43.338;25.502;2023-05-11T11:13:06;100967.25;;;21.20;43.00
2268;BME280;11052;43.338;25.502;2023-05-11T11:16:09;100969.16;;;20.89;41.72
2268;BME280;11052;43.338;25.502;2023-05-11T11:18:37;100953.03;;;21.22;41.88
2268;BME280;11052;43.338;25.502;2023-05-11T11:21:04;100959.28;;;21.48;43.48
2268;BME280;11052;43.338;25.502;2023-05-11T11:23:45;100952.63;;;21.43;41.85
2268;BME280;11052;43.338;25.502;2023-05-11T11:26:16;100941.47;;;21.25;39.88
2268;BME280;11052;43.338;25.502;2023-05-11T11:31:49;100924.19;;;21.73;44.29
2268;BME280;11052;43.338;25.502;2023-05-11T11:34:33;100939.84;;;21.89;45.06
2268;BME280;11052;43.338;25.502;2023-05-11T11:37:07;100939.56;;;21.13;41.00
2268;BME280;11052;43.338;25.502;2023-05-11T11:39:50;100931.72;;;21.40;41.61
2268;BME280;11052;43.338;25.502;2023-05-11T11:42:30;100930.22;;;21.75;42.48
2268;BME280;11052;43.338;25.502;2023-05-11T11:45:28;100931.16;;;21.62;42.45
2268;BME280;11052;43.338;25.502;2023-05-11T11:48:29;100929.28;;;21.37;42.41
2268;BME280;11052;43.338;25.502;2023-05-11T11:51:03;100927.47;;;21.37;41.62
2268;BME280;11052;43.338;25.502;2023-05-11T11:54:04;100917.78;;;21.38;41.85
2268;BME280;11052;43.338;25.502;2023-05-11T11:56:43;100908.41;;;21.46;40.90
2268;BME280;11052;43.338;25.502;2023-05-11T11:59:11;100906.63;;;21.47;40.41
2268;BME280;11052;43.338;25.502;2023-05-11T12:01:41;100911.66;;;21.89;44.54
2268;BME280;11052;43.338;25.502;2023-05-11T12:07:19;100909.63;;;21.80;42.88
2268;BME280;11052;43.338;25.502;2023-05-11T12:09:46;100904.75;;;21.74;41.75
2268;BME280;11052;43.338;25.502;2023-05-11T12:12:16;100897.59;;;21.76;42.50
2268;BME280;11052;43.338;25.502;2023-05-11T12:14:44;100899.34;;;21.23;43.89
2268;BME280;11052;43.338;25.502;2023-05-11T12:17:14;100906.47;;;20.80;44.89
2268;BME280;11052;43.338;25.502;2023-05-11T12:19:43;100889.75;;;21.08;44.12
2268;BME280;11052;43.338;25.502;2023-05-11T12:22:11;100894.56;;;21.43;45.76
2268;BME280;11052;43.338;25.502;2023-05-11T12:24:41;100891.41;;;21.38;44.72
2268;BME280;11052;43.338;25.502;2023-05-11T12:27:09;100887.13;;;21.22;44.17
2268;BME280;11052;43.338;25.502;2023-05-11T12:29:36;100881.94;;;21.07;45.59
2268;BME280;11052;43.338;25.502;2023-05-11T12:32:03;100888.66;;;20.98;44.53
2268;BME280;11052;43.338;25.502;2023-05-11T12:34:30;100886.47;;;20.78;45.50
2268;BME280;11052;43.338;25.502;2023-05-11T12:36:57;100876.56;;;20.81;45.48
2268;BME280;11052;43.338;25.502;2023-05-11T12:39:26;100878.22;;;20.97;44.00
2268;BME280;11052;43.338;25.502;2023-05-11T12:41:55;100871.66;;;21.16;43.39
2268;BME280;11052;43.338;25.502;2023-05-11T12:44:24;100871.53;;;21.32;44.29
2268;BME280;11052;43.338;25.502;2023-05-11T12:46:52;100872.16;;;21.09;42.89
2268;BME280;11052;43.338;25.502;2023-05-11T12:49:20;100882.81;;;21.07;44.26
2268;BME280;11052;43.338;25.502;2023-05-11T12:51:50;100857.69;;;20.60;43.44
2268;BME280;11052;43.338;25.502;2023-05-11T12:54:32;100857.81;;;20.86;43.84
2268;BME280;11052;43.338;25.502;2023-05-11T12:57:02;100859.69;;;21.52;44.86
2268;BME280;11052;43.338;25.502;2023-05-11T12:59:33;100850.28;;;21.73;43.96
2268;BME280;11052;43.338;25.502;2023-05-11T13:02:09;100853.88;;;21.59;43.28
2268;BME280;11052;43.338;25.502;2023-05-11T13:04:39;100855.69;;;21.59;44.81
2268;BME280;11052;43.338;25.502;2023-05-11T13:07:07;100851.75;;;20.98;44.45
2268;BME280;11052;43.338;25.502;2023-05-11T13:09:35;100853.53;;;20.71;44.67
2268;BME280;11052;43.338;25.502;2023-05-11T13:12:16;100856.88;;;20.46;43.82